createdAt,value
2022-08-17T00:00:39.729Z,11.10
2022-08-17T00:03:11.307Z,10.13
2022-08-17T00:05:45.597Z,10.27
2022-08-17T00:08:17.439Z,10.53
2022-08-17T00:10:47.001Z,9.70
2022-08-17T00:13:19.866Z,9.80
2022-08-17T00:15:48.632Z,9.73
2022-08-17T00:19:01.382Z,9.60
2022-08-17T00:21:10.235Z,10.27
2022-08-17T00:23:47.729Z,10.50
2022-08-17T00:26:34.891Z,10.25
2022-08-17T00:29:08.851Z,10.67
2022-08-17T00:31:37.888Z,10.37
2022-08-17T00:34:18.544Z,9.40
2022-08-17T00:36:47.609Z,9.87
2022-08-17T00:39:16.156Z,10.00
2022-08-17T00:42:34.539Z,9.57
2022-08-17T00:49:26.136Z,9.80
2022-08-17T00:52:06.082Z,9.40
2022-08-17T01:02:22.571Z,9.43
2022-08-17T02:10:18.262Z,10.37
2022-08-17T02:12:50.751Z,10.03
2022-08-17T02:19:25.690Z,9.80
2022-08-17T02:34:21.265Z,10.30
2022-08-17T02:37:17.285Z,10.40
2022-08-17T02:43:51.424Z,10.15
2022-08-17T02:46:20.414Z,10.78
2022-08-17T02:49:09.479Z,10.03
2022-08-17T02:51:40.807Z,10.10
2022-08-17T02:54:40.030Z,10.17
2022-08-17T03:04:21.205Z,9.80
2022-08-17T03:06:49.880Z,10.47
2022-08-17T03:09:36.912Z,10.85
2022-08-17T03:16:00.794Z,10.60
2022-08-17T03:29:22.086Z,11.27
2022-08-17T03:32:01.509Z,11.90
2022-08-17T03:36:08.115Z,11.43
2022-08-17T03:38:24.912Z,11.90
2022-08-17T03:40:56.970Z,12.30
2022-08-17T03:51:48.789Z,11.47
2022-08-17T03:52:16.828Z,12.37
2022-08-17T03:55:04.676Z,12.80
2022-08-17T03:57:33.370Z,13.40
2022-08-17T04:00:04.888Z,12.83
2022-08-17T04:02:42.376Z,12.87
2022-08-17T04:05:12.479Z,13.20
2022-08-17T04:11:44.589Z,13.93
2022-08-17T04:14:17.407Z,13.27
2022-08-17T04:16:46.174Z,13.93
2022-08-17T04:23:43.536Z,13.57
2022-08-17T04:26:52.676Z,14.27
2022-08-17T04:33:43.962Z,12.93
2022-08-17T04:36:15.292Z,12.80
2022-08-17T04:38:45.545Z,13.67
2022-08-17T04:45:18.007Z,13.00
2022-08-17T04:47:54.071Z,12.73
2022-08-17T04:50:22.665Z,13.20
2022-08-17T05:00:54.256Z,11.73
2022-08-17T05:10:48.571Z,10.40
2022-08-17T05:13:19.212Z,10.83
2022-08-17T05:19:47.580Z,9.87
2022-08-17T05:22:26.988Z,10.10
2022-08-17T05:25:10.396Z,9.27
2022-08-17T05:34:28.683Z,7.60
2022-08-17T05:36:57.306Z,8.40
2022-08-17T05:43:32.684Z,7.83
2022-08-17T05:46:33.172Z,7.43
2022-08-17T05:55:59.208Z,7.07
2022-08-17T05:58:58.780Z,7.27
2022-08-17T06:09:08.905Z,8.67
2022-08-17T06:11:45.469Z,9.20
2022-08-17T06:14:45.348Z,8.23
2022-08-17T06:18:05.488Z,7.33
2022-08-17T06:20:49.025Z,7.60
2022-08-17T06:23:40.641Z,8.55
2022-08-17T06:26:14.607Z,8.23
2022-08-17T06:28:51.185Z,8.30
2022-08-17T06:31:26.979Z,8.00
2022-08-17T06:33:57.974Z,8.03
2022-08-17T06:36:41.869Z,8.07
2022-08-17T06:39:31.777Z,7.97
2022-08-17T06:43:02.548Z,7.73
2022-08-17T06:45:10.678Z,8.87
2022-08-17T06:47:44.918Z,8.13
2022-08-17T06:50:20.052Z,7.70
2022-08-17T06:52:54.478Z,7.70
2022-08-17T06:55:32.190Z,8.40
2022-08-17T06:58:09.985Z,8.23
2022-08-17T07:00:47.924Z,7.47
2022-08-17T07:03:26.285Z,7.93
2022-08-17T07:05:59.189Z,7.90
2022-08-17T10:31:10.516Z,4.80
2022-08-17T10:34:08.845Z,4.37
2022-08-17T10:36:54.553Z,4.50
2022-08-17T10:43:34.180Z,4.65
2022-08-17T10:46:30.297Z,4.75
2022-08-17T10:49:28.047Z,4.40
2022-08-17T10:53:06.355Z,4.33
2022-08-17T10:56:28.746Z,4.83
2022-08-17T10:59:00.136Z,4.10
2022-08-17T11:02:14.862Z,5.27
2022-08-17T11:05:33.969Z,4.72
2022-08-17T11:08:31.704Z,4.13
2022-08-17T11:11:22.756Z,4.23
2022-08-17T11:14:08.619Z,4.77
2022-08-17T11:16:52.957Z,4.70
2022-08-17T11:20:05.484Z,4.53
2022-08-17T11:23:35.944Z,4.13
2022-08-17T11:26:35.348Z,5.33
2022-08-17T11:29:17.025Z,4.60
2022-08-17T11:32:27.581Z,4.63
2022-08-17T11:35:54.988Z,4.67
2022-08-17T11:38:45.875Z,4.77
2022-08-17T11:41:26.962Z,5.40
2022-08-17T11:48:33.823Z,4.30
2022-08-17T11:51:30.914Z,4.23
2022-08-17T11:54:34.408Z,4.67
2022-08-17T11:57:50.253Z,4.80
2022-08-17T12:01:10.090Z,4.70
2022-08-17T12:03:58.458Z,4.40
2022-08-17T12:10:12.095Z,4.80
2022-08-17T12:12:43.620Z,4.75
2022-08-17T12:15:19.392Z,5.20
2022-08-17T12:22:06.381Z,4.93
2022-08-17T12:22:13.626Z,4.30
2022-08-17T12:25:03.889Z,4.90
2022-08-17T12:28:04.765Z,5.00
2022-08-17T12:30:57.427Z,5.33
2022-08-17T12:33:28.637Z,5.00
2022-08-17T12:36:11.537Z,4.93
2022-08-17T12:38:41.646Z,4.58
2022-08-17T12:41:26.708Z,4.77
2022-08-17T12:44:01.728Z,5.00
2022-08-17T12:46:34.362Z,5.30
2022-08-17T12:49:16.664Z,5.10
2022-08-17T12:51:47.291Z,4.93
2022-08-17T12:54:31.542Z,4.73
2022-08-17T12:57:05.472Z,5.00
2022-08-17T12:59:34.343Z,5.57
2022-08-17T13:02:03.410Z,5.17
2022-08-17T13:04:32.132Z,5.00
2022-08-17T13:07:01.093Z,4.87
2022-08-17T13:09:40.259Z,5.70
2022-08-17T13:12:10.375Z,4.53
2022-08-17T13:14:45.968Z,5.13
2022-08-17T13:17:26.827Z,4.90
2022-08-17T13:19:55.626Z,4.87
2022-08-17T13:22:26.288Z,4.17
2022-08-17T13:24:57.875Z,5.30
2022-08-17T13:27:28.696Z,5.47
2022-08-17T13:30:00.383Z,4.20
2022-08-17T13:32:46.740Z,4.90
2022-08-17T13:35:50.071Z,4.80
2022-08-17T13:38:40.020Z,4.97
2022-08-17T13:41:28.707Z,4.50
2022-08-17T13:43:57.777Z,5.17
2022-08-17T13:46:30.937Z,5.03
2022-08-17T13:49:03.387Z,5.40
2022-08-17T13:51:35.560Z,4.53
2022-08-17T13:54:10.774Z,4.90
2022-08-17T13:57:00.773Z,5.90
2022-08-17T13:59:54.142Z,6.00
2022-08-17T14:02:28.456Z,5.60
2022-08-17T14:04:58.745Z,5.80
2022-08-17T14:07:33.095Z,5.53
2022-08-17T14:10:06.722Z,5.60
2022-08-17T14:12:38.079Z,5.40
2022-08-17T14:15:09.167Z,5.50
2022-08-17T14:17:39.185Z,5.70
2022-08-17T14:20:12.105Z,5.37
2022-08-17T14:22:48.913Z,6.05
2022-08-17T14:25:20.627Z,5.33
2022-08-17T14:27:52.996Z,5.20
2022-08-17T14:30:25.906Z,5.10
2022-08-17T14:32:56.028Z,5.67
2022-08-17T14:35:27.466Z,5.40
2022-08-17T14:37:56.782Z,5.40
2022-08-17T14:40:26.540Z,4.73
2022-08-17T14:42:57.274Z,5.80
2022-08-17T14:45:32.102Z,5.50
2022-08-17T14:48:05.200Z,5.30
2022-08-17T14:50:35.290Z,5.17
2022-08-17T14:53:06.069Z,5.50
2022-08-17T14:55:39.093Z,4.80
2022-08-17T14:58:08.672Z,5.50
2022-08-17T15:00:38.938Z,5.33
2022-08-17T15:03:07.514Z,4.70
2022-08-17T15:05:38.219Z,5.00
2022-08-17T15:08:07.818Z,4.97
2022-08-17T15:10:38.597Z,4.97
2022-08-17T15:13:16.557Z,5.53
2022-08-17T15:19:29.214Z,5.63
2022-08-17T15:22:15.884Z,5.10
2022-08-17T15:24:47.431Z,6.10
2022-08-17T15:31:08.486Z,4.70
2022-08-17T15:33:37.160Z,5.30
2022-08-17T15:44:20.667Z,5.37
2022-08-17T15:46:49.562Z,5.23
2022-08-17T15:49:27.935Z,5.47
2022-08-17T15:51:57.790Z,5.40
2022-08-17T15:54:31.626Z,5.67
2022-08-17T15:57:06.999Z,5.30
2022-08-17T15:59:42.428Z,5.03
2022-08-17T16:03:45.451Z,5.60
2022-08-17T16:05:21.612Z,5.50
2022-08-17T16:07:59.879Z,5.77
2022-08-17T16:10:35.136Z,5.23
2022-08-17T16:13:17.648Z,5.27
2022-08-17T16:15:56.578Z,5.60
2022-08-17T16:18:31.241Z,5.63
2022-08-17T16:21:26.141Z,6.10
2022-08-17T16:24:38.704Z,6.00
2022-08-17T16:27:20.762Z,6.07
2022-08-17T16:29:55.532Z,5.83
2022-08-17T16:33:02.850Z,5.62
2022-08-17T16:35:50.684Z,5.77
2022-08-17T16:38:31.787Z,5.35
2022-08-17T16:41:00.586Z,5.47
2022-08-17T16:43:35.456Z,5.90
2022-08-17T16:46:15.405Z,5.63
2022-08-17T16:48:56.606Z,6.10
2022-08-17T16:51:25.705Z,5.73
2022-08-17T16:54:00.504Z,6.30
2022-08-17T16:56:41.316Z,5.77
2022-08-17T16:59:39.435Z,5.60
2022-08-17T17:02:37.094Z,6.47
2022-08-17T17:05:12.456Z,7.30
2022-08-17T17:08:00.371Z,6.37
2022-08-17T17:10:35.742Z,6.33
2022-08-17T17:13:12.289Z,7.50
2022-08-17T17:15:53.186Z,6.57
2022-08-17T17:18:27.004Z,5.57
2022-08-17T17:20:57.478Z,7.07
2022-08-17T17:23:53.967Z,6.53
2022-08-17T17:26:39.819Z,6.25
2022-08-17T17:29:48.228Z,6.13
2022-08-17T17:32:27.797Z,7.27
2022-08-17T17:35:04.279Z,6.97
2022-08-17T17:37:35.973Z,6.67
2022-08-17T17:40:12.908Z,7.53
2022-08-17T17:42:46.936Z,7.20
2022-08-17T17:45:21.330Z,7.67
2022-08-17T17:47:50.816Z,7.37
2022-08-17T17:50:35.591Z,7.10
2022-08-17T17:53:43.039Z,7.40
2022-08-17T17:56:44.658Z,7.47
2022-08-17T17:59:46.944Z,7.47
2022-08-17T18:06:38.619Z,6.50
2022-08-17T18:09:23.772Z,7.13
2022-08-17T18:12:38.138Z,6.80
2022-08-17T18:19:20.296Z,8.07
2022-08-17T18:22:47.347Z,7.13
2022-08-17T18:29:24.505Z,7.70
2022-08-17T18:50:53.731Z,8.13
2022-08-17T18:53:34.729Z,8.50
2022-08-17T19:01:08.580Z,8.73
